Garcia, Colorado
Current Conditions -  °F | °C
As of 2:52 AM on Friday 31 Oct 2014 (Local Time) from KALS Reporting Station
Clear Clear  
Wind Chill: 24°   Ceiling: Unl
Heat Index: 29°   Visibility: 10mi
Dew Point: 17°   Wind: 5mph
Humidity: 61%   Direction: 190°S
Pressure: 30.39"   Gusts: NA
Location:  37°N, 105.54°W
Report Text: KALS 310852Z AUTO 19004KT 10SM CLR M02/M08 A3039 RMK AO2 SLP247 T10171083 58001
Loading
Personal Weather Stations






























Interactive Weather Map
Tropical Storm Tracking
New forecast layout! Learn more

10-Day Weather Forecast

Advertisements
Track Severe Weather on mobile